sensor_id;sensor_type;location;lat;lon;timestamp;temperature;humidity
65460;DHT22;52058;49.822;6.754;2023-06-26T00:00:57;17.83;82.92
65460;DHT22;52058;49.822;6.754;2023-06-26T00:03:24;17.78;82.98
65460;DHT22;52058;49.822;6.754;2023-06-26T00:05:50;17.72;83.19
65460;DHT22;52058;49.822;6.754;2023-06-26T00:08:16;17.69;83.28
65460;DHT22;52058;49.822;6.754;2023-06-26T00:10:43;17.63;83.63
65460;DHT22;52058;49.822;6.754;2023-06-26T00:13:09;17.62;83.76
65460;DHT22;52058;49.822;6.754;2023-06-26T00:15:38;17.58;83.80
65460;DHT22;52058;49.822;6.754;2023-06-26T00:18:05;17.49;83.77
65460;DHT22;52058;49.822;6.754;2023-06-26T00:20:31;17.48;83.78
65460;DHT22;52058;49.822;6.754;2023-06-26T00:22:59;17.44;83.92
65460;DHT22;52058;49.822;6.754;2023-06-26T00:25:25;17.34;84.39
65460;DHT22;52058;49.822;6.754;2023-06-26T00:27:51;17.28;84.53
65460;DHT22;52058;49.822;6.754;2023-06-26T00:30:18;17.23;84.56
65460;DHT22;52058;49.822;6.754;2023-06-26T00:32:46;17.20;84.75
65460;DHT22;52058;49.822;6.754;2023-06-26T00:35:12;17.15;85.07
65460;DHT22;52058;49.822;6.754;2023-06-26T00:37:39;17.14;85.07
65460;DHT22;52058;49.822;6.754;2023-06-26T00:40:05;17.08;85.27
65460;DHT22;52058;49.822;6.754;2023-06-26T00:42:32;17.06;85.53
65460;DHT22;52058;49.822;6.754;2023-06-26T00:44:58;17.03;85.60
65460;DHT22;52058;49.822;6.754;2023-06-26T00:47:25;17.00;85.55
65460;DHT22;52058;49.822;6.754;2023-06-26T00:49:52;17.00;85.52
65460;DHT22;52058;49.822;6.754;2023-06-26T00:52:20;16.99;85.50
65460;DHT22;52058;49.822;6.754;2023-06-26T00:54:48;16.91;85.46
65460;DHT22;52058;49.822;6.754;2023-06-26T00:57:16;16.84;85.76
65460;DHT22;52058;49.822;6.754;2023-06-26T00:59:42;16.80;85.89
65460;DHT22;52058;49.822;6.754;2023-06-26T01:02:09;16.80;85.89
65460;DHT22;52058;49.822;6.754;2023-06-26T01:04:35;16.72;86.26
65460;DHT22;52058;49.822;6.754;2023-06-26T01:07:03;16.70;86.21
65460;DHT22;52058;49.822;6.754;2023-06-26T01:09:33;16.65;86.28
65460;DHT22;52058;49.822;6.754;2023-06-26T01:11:59;16.63;86.31
65460;DHT22;52058;49.822;6.754;2023-06-26T01:14:25;16.65;86.22
65460;DHT22;52058;49.822;6.754;2023-06-26T01:16:52;16.52;86.54
65460;DHT22;52058;49.822;6.754;2023-06-26T01:19:23;16.53;86.47
65460;DHT22;52058;49.822;6.754;2023-06-26T01:21:51;16.52;86.48
65460;DHT22;52058;49.822;6.754;2023-06-26T01:24:23;16.51;86.40
65460;DHT22;52058;49.822;6.754;2023-06-26T01:26:53;16.51;86.36
65460;DHT22;52058;49.822;6.754;2023-06-26T01:29:20;16.45;86.48
65460;DHT22;52058;49.822;6.754;2023-06-26T01:31:48;16.42;86.61
65460;DHT22;52058;49.822;6.754;2023-06-26T01:34:15;16.41;86.47
65460;DHT22;52058;49.822;6.754;2023-06-26T01:36:43;16.36;86.51
65460;DHT22;52058;49.822;6.754;2023-06-26T01:39:10;16.38;86.50
65460;DHT22;52058;49.822;6.754;2023-06-26T01:41:36;16.35;86.43
65460;DHT22;52058;49.822;6.754;2023-06-26T01:44:07;16.38;86.43
65460;DHT22;52058;49.822;6.754;2023-06-26T01:46:38;16.38;86.47
65460;DHT22;52058;49.822;6.754;2023-06-26T01:49:07;16.33;86.49
65460;DHT22;52058;49.822;6.754;2023-06-26T01:51:37;16.28;86.66
65460;DHT22;52058;49.822;6.754;2023-06-26T01:54:04;16.29;86.66
65460;DHT22;52058;49.822;6.754;2023-06-26T01:56:32;16.21;86.80
65460;DHT22;52058;49.822;6.754;2023-06-26T01:58:59;16.18;87.15
65460;DHT22;52058;49.822;6.754;2023-06-26T02:01:27;16.14;87.16
65460;DHT22;52058;49.822;6.754;2023-06-26T02:03:54;16.15;87.27
65460;DHT22;52058;49.822;6.754;2023-06-26T02:06:20;16.11;87.33
65460;DHT22;52058;49.822;6.754;2023-06-26T02:08:47;16.14;87.09
65460;DHT22;52058;49.822;6.754;2023-06-26T02:11:13;16.14;86.90
65460;DHT22;52058;49.822;6.754;2023-06-26T02:13:40;16.12;86.86
65460;DHT22;52058;49.822;6.754;2023-06-26T02:16:06;16.09;86.82
65460;DHT22;52058;49.822;6.754;2023-06-26T02:18:34;16.07;86.88
65460;DHT22;52058;49.822;6.754;2023-06-26T02:21:02;16.09;86.91
65460;DHT22;52058;49.822;6.754;2023-06-26T02:23:29;16.09;86.90
65460;DHT22;52058;49.822;6.754;2023-06-26T02:25:55;16.07;86.93
65460;DHT22;52058;49.822;6.754;2023-06-26T02:28:22;16.04;87.12
65460;DHT22;52058;49.822;6.754;2023-06-26T02:30:48;16.01;87.20
65460;DHT22;52058;49.822;6.754;2023-06-26T02:33:15;15.98;87.15
65460;DHT22;52058;49.822;6.754;2023-06-26T02:35:42;15.93;87.18
65460;DHT22;52058;49.822;6.754;2023-06-26T02:38:09;15.91;87.20
65460;DHT22;52058;49.822;6.754;2023-06-26T02:40:35;15.94;87.20
65460;DHT22;52058;49.822;6.754;2023-06-26T02:43:02;15.88;87.51
65460;DHT22;52058;49.822;6.754;2023-06-26T02:45:28;15.88;87.49
65460;DHT22;52058;49.822;6.754;2023-06-26T02:47:55;15.90;87.54
65460;DHT22;52058;49.822;6.754;2023-06-26T02:50:21;15.88;87.44
65460;DHT22;52058;49.822;6.754;2023-06-26T02:52:49;15.88;87.58
65460;DHT22;52058;49.822;6.754;2023-06-26T02:55:17;15.87;87.58
65460;DHT22;52058;49.822;6.754;2023-06-26T02:57:44;15.84;87.59
65460;DHT22;52058;49.822;6.754;2023-06-26T03:00:11;15.86;87.68
65460;DHT22;52058;49.822;6.754;2023-06-26T03:02:37;15.86;87.81
65460;DHT22;52058;49.822;6.754;2023-06-26T03:05:04;15.84;87.91
65460;DHT22;52058;49.822;6.754;2023-06-26T03:07:30;15.84;87.90
65460;DHT22;52058;49.822;6.754;2023-06-26T03:09:58;15.81;87.84
65460;DHT22;52058;49.822;6.754;2023-06-26T03:12:25;15.76;87.99
65460;DHT22;52058;49.822;6.754;2023-06-26T03:14:51;15.77;88.10
65460;DHT22;52058;49.822;6.754;2023-06-26T03:17:18;15.78;88.09
65460;DHT22;52058;49.822;6.754;2023-06-26T03:19:44;15.77;88.06
65460;DHT22;52058;49.822;6.754;2023-06-26T03:22:11;15.73;87.98
65460;DHT22;52058;49.822;6.754;2023-06-26T03:24:37;15.74;88.19
65460;DHT22;52058;49.822;6.754;2023-06-26T03:27:05;15.74;88.22
65460;DHT22;52058;49.822;6.754;2023-06-26T03:29:32;15.71;88.17
65460;DHT22;52058;49.822;6.754;2023-06-26T03:31:58;15.74;88.09
65460;DHT22;52058;49.822;6.754;2023-06-26T03:34:24;15.73;88.15
65460;DHT22;52058;49.822;6.754;2023-06-26T03:36:51;15.68;88.25
65460;DHT22;52058;49.822;6.754;2023-06-26T03:39:17;15.68;88.09
65460;DHT22;52058;49.822;6.754;2023-06-26T03:41:43;15.73;87.98
65460;DHT22;52058;49.822;6.754;2023-06-26T03:44:11;15.73;88.14
65460;DHT22;52058;49.822;6.754;2023-06-26T03:46:38;15.74;88.22
65460;DHT22;52058;49.822;6.754;2023-06-26T03:49:04;15.74;88.15
65460;DHT22;52058;49.822;6.754;2023-06-26T03:51:30;15.84;87.97
65460;DHT22;52058;49.822;6.754;2023-06-26T03:53:57;15.80;88.25
65460;DHT22;52058;49.822;6.754;2023-06-26T03:56:23;15.87;88.12
65460;DHT22;52058;49.822;6.754;2023-06-26T03:58:50;15.93;88.35
65460;DHT22;52058;49.822;6.754;2023-06-26T04:01:17;15.94;88.10
65460;DHT22;52058;49.822;6.754;2023-06-26T04:03:46;15.98;88.19
65460;DHT22;52058;49.822;6.754;2023-06-26T04:06:12;16.04;88.08
65460;DHT22;52058;49.822;6.754;2023-06-26T04:08:39;16.09;88.42
65460;DHT22;52058;49.822;6.754;2023-06-26T04:11:05;16.14;87.88
65460;DHT22;52058;49.822;6.754;2023-06-26T04:13:32;16.21;87.89
65460;DHT22;52058;49.822;6.754;2023-06-26T04:15:58;16.25;87.64
65460;DHT22;52058;49.822;6.754;2023-06-26T04:18:26;16.33;87.67
65460;DHT22;52058;49.822;6.754;2023-06-26T04:21:06;16.38;87.92
65460;DHT22;52058;49.822;6.754;2023-06-26T04:23:33;16.46;87.62
65460;DHT22;52058;49.822;6.754;2023-06-26T04:26:00;16.52;87.90
65460;DHT22;52058;49.822;6.754;2023-06-26T04:28:27;16.56;87.61
65460;DHT22;52058;49.822;6.754;2023-06-26T04:30:54;16.66;87.67
65460;DHT22;52058;49.822;6.754;2023-06-26T04:33:20;16.70;87.37
65460;DHT22;52058;49.822;6.754;2023-06-26T04:35:48;16.77;86.79
65460;DHT22;52058;49.822;6.754;2023-06-26T04:38:14;16.90;86.97
65460;DHT22;52058;49.822;6.754;2023-06-26T04:40:41;17.00;87.19
65460;DHT22;52058;49.822;6.754;2023-06-26T04:43:07;17.11;86.93
65460;DHT22;52058;49.822;6.754;2023-06-26T04:45:34;17.23;86.37
65460;DHT22;52058;49.822;6.754;2023-06-26T04:48:00;17.30;85.43
65460;DHT22;52058;49.822;6.754;2023-06-26T04:50:26;17.34;85.34
65460;DHT22;52058;49.822;6.754;2023-06-26T04:52:55;17.38;84.96
65460;DHT22;52058;49.822;6.754;2023-06-26T04:55:23;17.45;84.82
65460;DHT22;52058;49.822;6.754;2023-06-26T04:57:50;17.52;85.07
65460;DHT22;52058;49.822;6.754;2023-06-26T05:00:16;17.49;84.71
65460;DHT22;52058;49.822;6.754;2023-06-26T05:02:43;17.54;84.72
65460;DHT22;52058;49.822;6.754;2023-06-26T05:05:09;17.56;84.53
65460;DHT22;52058;49.822;6.754;2023-06-26T05:07:36;17.61;84.78
65460;DHT22;52058;49.822;6.754;2023-06-26T05:10:04;17.68;84.52
65460;DHT22;52058;49.822;6.754;2023-06-26T05:12:31;17.82;85.59
65460;DHT22;52058;49.822;6.754;2023-06-26T05:14:57;17.93;85.06
65460;DHT22;52058;49.822;6.754;2023-06-26T05:17:24;17.96;84.16
65460;DHT22;52058;49.822;6.754;2023-06-26T05:19:50;18.02;84.08
65460;DHT22;52058;49.822;6.754;2023-06-26T05:22:16;18.09;84.73
65460;DHT22;52058;49.822;6.754;2023-06-26T05:24:43;18.14;84.07
65460;DHT22;52058;49.822;6.754;2023-06-26T05:27:14;18.26;84.03
65460;DHT22;52058;49.822;6.754;2023-06-26T05:29:46;18.31;83.88
65460;DHT22;52058;49.822;6.754;2023-06-26T05:32:13;18.43;84.03
65460;DHT22;52058;49.822;6.754;2023-06-26T05:34:42;18.52;83.61
65460;DHT22;52058;49.822;6.754;2023-06-26T05:37:09;18.61;83.83
65460;DHT22;52058;49.822;6.754;2023-06-26T05:39:36;18.71;83.59
65460;DHT22;52058;49.822;6.754;2023-06-26T05:42:03;18.78;83.21
65460;DHT22;52058;49.822;6.754;2023-06-26T05:44:31;18.84;82.85
65460;DHT22;52058;49.822;6.754;2023-06-26T05:46:57;18.95;82.03
65460;DHT22;52058;49.822;6.754;2023-06-26T05:49:24;19.05;81.58
65460;DHT22;52058;49.822;6.754;2023-06-26T05:51:50;19.24;81.30
65460;DHT22;52058;49.822;6.754;2023-06-26T05:54:17;19.36;81.21
65460;DHT22;52058;49.822;6.754;2023-06-26T05:56:43;19.41;81.11
65460;DHT22;52058;49.822;6.754;2023-06-26T05:59:10;19.47;80.94
65460;DHT22;52058;49.822;6.754;2023-06-26T06:01:38;19.53;81.30
65460;DHT22;52058;49.822;6.754;2023-06-26T06:04:05;19.60;80.88
65460;DHT22;52058;49.822;6.754;2023-06-26T06:06:31;19.73;80.69
65460;DHT22;52058;49.822;6.754;2023-06-26T06:08:57;19.88;80.68
65460;DHT22;52058;49.822;6.754;2023-06-26T06:11:24;19.89;80.84
65460;DHT22;52058;49.822;6.754;2023-06-26T06:13:50;19.97;80.90
65460;DHT22;52058;49.822;6.754;2023-06-26T06:16:16;20.07;80.89
65460;DHT22;52058;49.822;6.754;2023-06-26T06:18:44;20.19;80.83
65460;DHT22;52058;49.822;6.754;2023-06-26T06:21:11;20.33;79.66
65460;DHT22;52058;49.822;6.754;2023-06-26T06:23:37;20.53;79.76
65460;DHT22;52058;49.822;6.754;2023-06-26T06:26:04;20.75;78.19
65460;DHT22;52058;49.822;6.754;2023-06-26T06:28:30;20.96;78.12
65460;DHT22;52058;49.822;6.754;2023-06-26T06:30:56;21.11;76.92
65460;DHT22;52058;49.822;6.754;2023-06-26T06:33:23;21.20;76.51
65460;DHT22;52058;49.822;6.754;2023-06-26T06:35:50;21.30;75.40
65460;DHT22;52058;49.822;6.754;2023-06-26T06:38:17;21.46;74.87
65460;DHT22;52058;49.822;6.754;2023-06-26T06:40:44;21.72;74.46
65460;DHT22;52058;49.822;6.754;2023-06-26T06:43:10;21.96;74.40
65460;DHT22;52058;49.822;6.754;2023-06-26T06:45:36;22.14;73.43
65460;DHT22;52058;49.822;6.754;2023-06-26T06:48:03;22.30;71.71
65460;DHT22;52058;49.822;6.754;2023-06-26T06:50:30;22.40;71.08
65460;DHT22;52058;49.822;6.754;2023-06-26T06:52:58;22.57;70.05
65460;DHT22;52058;49.822;6.754;2023-06-26T06:55:24;22.71;69.92
65460;DHT22;52058;49.822;6.754;2023-06-26T06:57:50;22.85;69.04
65460;DHT22;52058;49.822;6.754;2023-06-26T07:00:17;22.95;69.03
65460;DHT22;52058;49.822;6.754;2023-06-26T07:02:44;22.88;68.34
65460;DHT22;52058;49.822;6.754;2023-06-26T07:05:11;23.09;68.17
65460;DHT22;52058;49.822;6.754;2023-06-26T07:07:38;23.02;66.42
65460;DHT22;52058;49.822;6.754;2023-06-26T07:10:06;23.15;65.45
65460;DHT22;52058;49.822;6.754;2023-06-26T07:12:33;23.13;65.56
65460;DHT22;52058;49.822;6.754;2023-06-26T07:15:00;23.16;66.34
65460;DHT22;52058;49.822;6.754;2023-06-26T07:17:27;23.08;66.23
65460;DHT22;52058;49.822;6.754;2023-06-26T07:19:54;22.94;66.75
65460;DHT22;52058;49.822;6.754;2023-06-26T07:22:20;22.88;67.09
65460;DHT22;52058;49.822;6.754;2023-06-26T07:24:46;22.72;66.02
65460;DHT22;52058;49.822;6.754;2023-06-26T07:27:15;22.62;65.14
65460;DHT22;52058;49.822;6.754;2023-06-26T07:29:41;22.48;64.07
65460;DHT22;52058;49.822;6.754;2023-06-26T07:32:08;22.51;64.26
65460;DHT22;52058;49.822;6.754;2023-06-26T07:34:34;22.47;63.71
65460;DHT22;52058;49.822;6.754;2023-06-26T07:37:00;22.45;63.11
65460;DHT22;52058;49.822;6.754;2023-06-26T07:39:27;22.43;63.21
65460;DHT22;52058;49.822;6.754;2023-06-26T07:41:53;22.43;63.78
65460;DHT22;52058;49.822;6.754;2023-06-26T07:44:21;22.40;64.40
65460;DHT22;52058;49.822;6.754;2023-06-26T07:46:48;22.34;65.02
65460;DHT22;52058;49.822;6.754;2023-06-26T07:49:14;22.37;64.95
65460;DHT22;52058;49.822;6.754;2023-06-26T07:51:40;22.39;65.01
65460;DHT22;52058;49.822;6.754;2023-06-26T07:54:07;22.36;64.88
65460;DHT22;52058;49.822;6.754;2023-06-26T07:56:35;22.37;64.80
65460;DHT22;52058;49.822;6.754;2023-06-26T07:59:01;22.39;64.65
65460;DHT22;52058;49.822;6.754;2023-06-26T08:01:30;22.50;65.02
65460;DHT22;52058;49.822;6.754;2023-06-26T08:03:57;22.51;64.68
65460;DHT22;52058;49.822;6.754;2023-06-26T08:06:23;22.58;64.23
65460;DHT22;52058;49.822;6.754;2023-06-26T08:08:49;22.62;63.33
65460;DHT22;52058;49.822;6.754;2023-06-26T08:11:16;22.60;63.43
65460;DHT22;52058;49.822;6.754;2023-06-26T08:13:42;22.67;63.00
65460;DHT22;52058;49.822;6.754;2023-06-26T08:16:09;22.75;63.45
65460;DHT22;52058;49.822;6.754;2023-06-26T08:18:37;22.79;62.17
65460;DHT22;52058;49.822;6.754;2023-06-26T08:21:03;22.91;62.67
65460;DHT22;52058;49.822;6.754;2023-06-26T08:23:29;23.01;62.79
65460;DHT22;52058;49.822;6.754;2023-06-26T08:25:56;22.96;62.50
65460;DHT22;52058;49.822;6.754;2023-06-26T08:28:23;22.99;62.45
65460;DHT22;52058;49.822;6.754;2023-06-26T08:30:50;23.02;62.33
65460;DHT22;52058;49.822;6.754;2023-06-26T08:33:16;23.12;62.53
65460;DHT22;52058;49.822;6.754;2023-06-26T08:35:44;23.24;61.54
65460;DHT22;52058;49.822;6.754;2023-06-26T08:38:10;23.29;62.19
65460;DHT22;52058;49.822;6.754;2023-06-26T08:40:37;23.27;61.55
65460;DHT22;52058;49.822;6.754;2023-06-26T08:43:04;23.33;62.29
65460;DHT22;52058;49.822;6.754;2023-06-26T08:45:30;23.36;61.41
65460;DHT22;52058;49.822;6.754;2023-06-26T08:47:57;23.57;60.54
65460;DHT22;52058;49.822;6.754;2023-06-26T08:50:25;23.70;60.18
65460;DHT22;52058;49.822;6.754;2023-06-26T08:52:56;23.71;59.24
65460;DHT22;52058;49.822;6.754;2023-06-26T08:55:25;23.75;59.73
65460;DHT22;52058;49.822;6.754;2023-06-26T08:57:52;23.87;59.90
65460;DHT22;52058;49.822;6.754;2023-06-26T09:00:18;23.96;59.83
65460;DHT22;52058;49.822;6.754;2023-06-26T09:02:45;23.98;58.33
65460;DHT22;52058;49.822;6.754;2023-06-26T09:05:12;24.07;58.71
65460;DHT22;52058;49.822;6.754;2023-06-26T09:07:38;24.07;58.55
65460;DHT22;52058;49.822;6.754;2023-06-26T09:10:07;24.17;58.87
65460;DHT22;52058;49.822;6.754;2023-06-26T09:12:33;24.22;58.53
65460;DHT22;52058;49.822;6.754;2023-06-26T09:15:01;24.25;58.42
65460;DHT22;52058;49.822;6.754;2023-06-26T09:17:29;24.24;58.23
65460;DHT22;52058;49.822;6.754;2023-06-26T09:19:55;24.19;59.11
65460;DHT22;52058;49.822;6.754;2023-06-26T09:22:22;24.25;59.08
65460;DHT22;52058;49.822;6.754;2023-06-26T09:24:49;24.32;59.45
65460;DHT22;52058;49.822;6.754;2023-06-26T09:27:17;24.30;60.37
65460;DHT22;52058;49.822;6.754;2023-06-26T09:29:44;24.28;61.11
65460;DHT22;52058;49.822;6.754;2023-06-26T09:32:11;24.33;62.25
65460;DHT22;52058;49.822;6.754;2023-06-26T09:34:40;24.38;62.06
65460;DHT22;52058;49.822;6.754;2023-06-26T09:37:07;24.32;62.28
65460;DHT22;52058;49.822;6.754;2023-06-26T09:39:33;24.33;62.20
65460;DHT22;52058;49.822;6.754;2023-06-26T09:42:00;24.21;62.30
65460;DHT22;52058;49.822;6.754;2023-06-26T09:44:28;24.19;62.47
65460;DHT22;52058;49.822;6.754;2023-06-26T09:46:56;24.26;62.18
65460;DHT22;52058;49.822;6.754;2023-06-26T09:49:23;24.28;61.40
65460;DHT22;52058;49.822;6.754;2023-06-26T09:51:49;24.42;60.87
65460;DHT22;52058;49.822;6.754;2023-06-26T09:54:16;24.48;60.74
65460;DHT22;52058;49.822;6.754;2023-06-26T09:56:43;24.65;60.10
65460;DHT22;52058;49.822;6.754;2023-06-26T09:59:10;24.60;59.68
65460;DHT22;52058;49.822;6.754;2023-06-26T10:01:39;24.52;59.03
65460;DHT22;52058;49.822;6.754;2023-06-26T10:04:05;24.57;59.63
65460;DHT22;52058;49.822;6.754;2023-06-26T10:06:33;24.70;59.15
65460;DHT22;52058;49.822;6.754;2023-06-26T10:09:00;24.59;58.23
65460;DHT22;52058;49.822;6.754;2023-06-26T10:11:32;24.72;58.16
65460;DHT22;52058;49.822;6.754;2023-06-26T10:14:01;24.70;58.18
65460;DHT22;52058;49.822;6.754;2023-06-26T10:16:29;24.86;58.84
65460;DHT22;52058;49.822;6.754;2023-06-26T10:19:01;25.03;58.36
65460;DHT22;52058;49.822;6.754;2023-06-26T10:21:29;25.21;56.80
65460;DHT22;52058;49.822;6.754;2023-06-26T10:23:56;25.11;55.65
65460;DHT22;52058;49.822;6.754;2023-06-26T10:26:22;25.00;55.27
65460;DHT22;52058;49.822;6.754;2023-06-26T10:28:50;25.18;56.43
65460;DHT22;52058;49.822;6.754;2023-06-26T10:31:18;25.31;55.97
65460;DHT22;52058;49.822;6.754;2023-06-26T10:33:46;25.39;55.79
65460;DHT22;52058;49.822;6.754;2023-06-26T10:36:14;25.41;55.45
65460;DHT22;52058;49.822;6.754;2023-06-26T10:38:51;25.58;55.18
65460;DHT22;52058;49.822;6.754;2023-06-26T10:41:21;25.59;53.40
65460;DHT22;52058;49.822;6.754;2023-06-26T10:43:49;25.72;52.16
65460;DHT22;52058;49.822;6.754;2023-06-26T10:46:15;25.83;50.14
65460;DHT22;52058;49.822;6.754;2023-06-26T10:48:55;26.03;49.99
65460;DHT22;52058;49.822;6.754;2023-06-26T10:51:23;26.03;51.32
65460;DHT22;52058;49.822;6.754;2023-06-26T10:53:50;25.93;50.09
65460;DHT22;52058;49.822;6.754;2023-06-26T10:56:19;25.75;48.82
65460;DHT22;52058;49.822;6.754;2023-06-26T10:58:47;26.02;50.54
65460;DHT22;52058;49.822;6.754;2023-06-26T11:01:14;26.20;50.98
65460;DHT22;52058;49.822;6.754;2023-06-26T11:03:41;26.30;51.07
65460;DHT22;52058;49.822;6.754;2023-06-26T11:06:11;26.19;50.92
65460;DHT22;52058;49.822;6.754;2023-06-26T11:08:45;26.22;49.30
65460;DHT22;52058;49.822;6.754;2023-06-26T11:11:12;26.33;49.59
65460;DHT22;52058;49.822;6.754;2023-06-26T11:13:39;26.29;49.57
65460;DHT22;52058;49.822;6.754;2023-06-26T11:16:05;26.26;48.61
65460;DHT22;52058;49.822;6.754;2023-06-26T11:18:32;26.41;49.62
65460;DHT22;52058;49.822;6.754;2023-06-26T11:21:03;25.81;43.06
65460;DHT22;52058;49.822;6.754;2023-06-26T11:23:30;25.96;45.33
65460;DHT22;52058;49.822;6.754;2023-06-26T11:26:12;26.20;46.51
65460;DHT22;52058;49.822;6.754;2023-06-26T11:28:41;26.22;46.59
65460;DHT22;52058;49.822;6.754;2023-06-26T11:31:23;26.32;46.86
65460;DHT22;52058;49.822;6.754;2023-06-26T11:33:49;26.47;45.68
65460;DHT22;52058;49.822;6.754;2023-06-26T11:36:17;26.44;44.72
65460;DHT22;52058;49.822;6.754;2023-06-26T11:38:43;26.39;45.31
65460;DHT22;52058;49.822;6.754;2023-06-26T11:41:10;26.37;45.45
65460;DHT22;52058;49.822;6.754;2023-06-26T11:43:38;26.47;45.25
65460;DHT22;52058;49.822;6.754;2023-06-26T11:46:05;26.57;44.35
65460;DHT22;52058;49.822;6.754;2023-06-26T11:48:32;26.51;45.08
65460;DHT22;52058;49.822;6.754;2023-06-26T11:50:58;26.77;44.29
65460;DHT22;52058;49.822;6.754;2023-06-26T11:53:25;26.70;43.30
65460;DHT22;52058;49.822;6.754;2023-06-26T11:55:51;26.85;44.00
65460;DHT22;52058;49.822;6.754;2023-06-26T11:58:17;26.72;44.05
65460;DHT22;52058;49.822;6.754;2023-06-26T12:00:47;26.58;42.76
65460;DHT22;52058;49.822;6.754;2023-06-26T12:03:13;26.68;43.35
65460;DHT22;52058;49.822;6.754;2023-06-26T12:05:40;26.85;43.60
65460;DHT22;52058;49.822;6.754;2023-06-26T12:08:10;27.09;44.41
65460;DHT22;52058;49.822;6.754;2023-06-26T12:10:36;27.28;43.55
65460;DHT22;52058;49.822;6.754;2023-06-26T12:13:03;27.16;43.22
65460;DHT22;52058;49.822;6.754;2023-06-26T12:15:29;27.33;42.96
65460;DHT22;52058;49.822;6.754;2023-06-26T12:17:57;27.33;43.11
65460;DHT22;52058;49.822;6.754;2023-06-26T12:20:24;27.09;43.89
65460;DHT22;52058;49.822;6.754;2023-06-26T12:22:51;27.23;43.05
65460;DHT22;52058;49.822;6.754;2023-06-26T12:25:21;27.46;43.67
65460;DHT22;52058;49.822;6.754;2023-06-26T12:27:48;27.42;43.29
65460;DHT22;52058;49.822;6.754;2023-06-26T12:30:15;27.39;43.64
65460;DHT22;52058;49.822;6.754;2023-06-26T12:32:43;27.33;42.99
65460;DHT22;52058;49.822;6.754;2023-06-26T12:35:12;27.33;43.12
65460;DHT22;52058;49.822;6.754;2023-06-26T12:37:38;27.08;40.49
65460;DHT22;52058;49.822;6.754;2023-06-26T12:40:15;27.32;39.79
65460;DHT22;52058;49.822;6.754;2023-06-26T12:42:42;27.45;39.34
65460;DHT22;52058;49.822;6.754;2023-06-26T12:45:12;27.57;38.86
65460;DHT22;52058;49.822;6.754;2023-06-26T12:47:38;27.54;39.06
65460;DHT22;52058;49.822;6.754;2023-06-26T12:50:06;27.86;38.92
65460;DHT22;52058;49.822;6.754;2023-06-26T12:52:34;28.17;39.82
65460;DHT22;52058;49.822;6.754;2023-06-26T12:55:01;28.55;39.32
65460;DHT22;52058;49.822;6.754;2023-06-26T12:57:27;28.83;38.56
65460;DHT22;52058;49.822;6.754;2023-06-26T12:59:53;29.53;37.62
65460;DHT22;52058;49.822;6.754;2023-06-26T13:02:20;30.14;36.75
65460;DHT22;52058;49.822;6.754;2023-06-26T13:04:46;30.80;35.77
65460;DHT22;52058;49.822;6.754;2023-06-26T13:07:13;31.93;34.87
65460;DHT22;52058;49.822;6.754;2023-06-26T13:09:41;32.03;34.87
65460;DHT22;52058;49.822;6.754;2023-06-26T13:12:07;33.14;33.64
65460;DHT22;52058;49.822;6.754;2023-06-26T13:14:34;33.46;33.62
65460;DHT22;52058;49.822;6.754;2023-06-26T13:17:00;32.82;33.75
65460;DHT22;52058;49.822;6.754;2023-06-26T13:19:27;33.50;32.94
65460;DHT22;52058;49.822;6.754;2023-06-26T13:21:53;33.50;32.74
65460;DHT22;52058;49.822;6.754;2023-06-26T13:24:20;33.49;33.37
65460;DHT22;52058;49.822;6.754;2023-06-26T13:26:47;33.17;34.75
65460;DHT22;52058;49.822;6.754;2023-06-26T13:29:14;33.17;34.75
65460;DHT22;52058;49.822;6.754;2023-06-26T13:31:41;33.72;34.49
65460;DHT22;52058;49.822;6.754;2023-06-26T13:34:07;33.03;35.53
65460;DHT22;52058;49.822;6.754;2023-06-26T13:36:33;32.29;35.98
65460;DHT22;52058;49.822;6.754;2023-06-26T13:39:00;32.52;36.16
65460;DHT22;52058;49.822;6.754;2023-06-26T13:41:27;32.98;34.46
65460;DHT22;52058;49.822;6.754;2023-06-26T13:43:55;33.41;34.32
65460;DHT22;52058;49.822;6.754;2023-06-26T13:46:22;33.04;35.00
65460;DHT22;52058;49.822;6.754;2023-06-26T13:48:48;31.88;35.63
65460;DHT22;52058;49.822;6.754;2023-06-26T13:51:14;32.46;35.91
65460;DHT22;52058;49.822;6.754;2023-06-26T13:53:41;31.86;36.10
65460;DHT22;52058;49.822;6.754;2023-06-26T13:56:07;31.67;35.17
65460;DHT22;52058;49.822;6.754;2023-06-26T13:58:34;32.16;34.51
65460;DHT22;52058;49.822;6.754;2023-06-26T14:01:02;32.28;35.36
65460;DHT22;52058;49.822;6.754;2023-06-26T14:03:29;33.57;34.11
65460;DHT22;52058;49.822;6.754;2023-06-26T14:05:55;34.42;33.64
65460;DHT22;52058;49.822;6.754;2023-06-26T14:08:22;33.40;34.78
65460;DHT22;52058;49.822;6.754;2023-06-26T14:10:48;33.92;34.28
65460;DHT22;52058;49.822;6.754;2023-06-26T14:13:15;33.60;34.48
65460;DHT22;52058;49.822;6.754;2023-06-26T14:15:41;33.41;35.22
65460;DHT22;52058;49.822;6.754;2023-06-26T14:18:09;33.60;34.61
65460;DHT22;52058;49.822;6.754;2023-06-26T14:20:35;33.44;34.45
65460;DHT22;52058;49.822;6.754;2023-06-26T14:23:02;32.68;35.36
65460;DHT22;52058;49.822;6.754;2023-06-26T14:25:28;32.82;35.05
65460;DHT22;52058;49.822;6.754;2023-06-26T14:27:55;33.72;34.59
65460;DHT22;52058;49.822;6.754;2023-06-26T14:30:22;34.90;33.62
65460;DHT22;52058;49.822;6.754;2023-06-26T14:32:48;34.96;33.17
65460;DHT22;52058;49.822;6.754;2023-06-26T14:35:16;35.71;33.09
65460;DHT22;52058;49.822;6.754;2023-06-26T14:37:43;34.83;33.29
65460;DHT22;52058;49.822;6.754;2023-06-26T14:40:10;33.57;35.10
65460;DHT22;52058;49.822;6.754;2023-06-26T14:42:37;34.19;34.01
65460;DHT22;52058;49.822;6.754;2023-06-26T14:45:03;33.98;34.51
65460;DHT22;52058;49.822;6.754;2023-06-26T14:47:30;33.94;33.84
65460;DHT22;52058;49.822;6.754;2023-06-26T14:49:56;33.40;35.19
65460;DHT22;52058;49.822;6.754;2023-06-26T14:52:24;33.49;34.78
65460;DHT22;52058;49.822;6.754;2023-06-26T14:54:50;34.42;33.67
65460;DHT22;52058;49.822;6.754;2023-06-26T14:57:17;34.19;34.16
65460;DHT22;52058;49.822;6.754;2023-06-26T14:59:43;35.44;33.02
65460;DHT22;52058;49.822;6.754;2023-06-26T15:02:10;35.64;33.04
65460;DHT22;52058;49.822;6.754;2023-06-26T15:04:36;33.55;34.15
65460;DHT22;52058;49.822;6.754;2023-06-26T15:07:03;33.84;33.96
65460;DHT22;52058;49.822;6.754;2023-06-26T15:09:30;33.26;34.96
65460;DHT22;52058;49.822;6.754;2023-06-26T15:11:58;34.22;33.65
65460;DHT22;52058;49.822;6.754;2023-06-26T15:14:24;34.36;34.01
65460;DHT22;52058;49.822;6.754;2023-06-26T15:16:50;34.16;33.74
65460;DHT22;52058;49.822;6.754;2023-06-26T15:19:17;34.33;33.35
65460;DHT22;52058;49.822;6.754;2023-06-26T15:21:43;34.38;32.53
65460;DHT22;52058;49.822;6.754;2023-06-26T15:24:09;34.74;32.73
65460;DHT22;52058;49.822;6.754;2023-06-26T15:26:37;33.80;33.79
65460;DHT22;52058;49.822;6.754;2023-06-26T15:29:04;32.39;35.00